Cleveland, Ohio
Traffic Map
Current Weather Conditions
Cleveland, Ohio
Clear
Clear
17°
Feels Like: 17°
Wind Chill: 17° Ceiling: Unl
Heat Index: 17° Visibility: 10mi
Dew Point: Wind: 6mph
Humidity: 48% Direction: 220° (SW)
Pressure: 30.04in Gusts: 0mph
Raw Report DataKBKL 181253Z 22005KT 10SM CLR 17/06 A3004 RMK AO2 SLP171 T01720061
Traffic Incident Summary
Active as of:
Severity:
Category:
InformationThere was an issue retrieving the traffic information for this location. Please try a different location or try again shortly.
Advertisements
Track Severe Weather on mobile